Yellowstone Regional Airport
KCOD : now visible

Airfield :











YOU CAN JOIN US ON...

 
LOGIN :

Register | Disclaimer

   EN    FR    IT 

 









Legend :    VFR   Marginal VFR   IFR   Intensive IFR   Very Intensive IFR
Visi :
Ceiling :
>= 8 km
>= 3000ft
5 to 8 km
1000 to 3000 ft
1500m to 5 km
500 to 1000 ft
800 to 1500m
200 to 500 ft
< 800m
< 200 ft
Symbols :   Thunderstorms  Fog  Heavy snow  Heavy precipitations  Wind > 20 kt







- Airport Elevation : 5102 ft


KCOD - Yellowstone Regional

CURRENT METAR :
  • 222356Z AUTO 36006KT 10SM BKN120 21/10 A2992 RMK AO2 WSHFT 2243 LTG DSNT NE AND SW TSE15 SLP094 60002 T02060100 10289 20200 51012

EXPIRED METARs :
  • 222326Z AUTO 03005KT 10SM BKN120 21/10 A2991 RMK AO2 WSHFT 2243 LTG DSNT NE TSE15
  • 222256Z AUTO 06013KT 10SM VCTS FEW025 SCT090 BKN120 22/11 A2991 RMK AO2 PK WND 23029/2212 WSHFT 2234 LTG DSNT NE TSB00RAB10E53 SLP087 P0002 T02170106
  • 222211Z AUTO 25015G20KT 7SM TSRA FEW060 BKN095 BKN120 25/06 A2991 RMK AO2 TSB00RAB10 P0000
  • 222156Z AUTO 26007KT 10SM FEW065 SCT085 BKN120 26/08 A2989 RMK AO2 TSB39E54 PRESRR SLP074 T02560078

TAF KCOD
Valid from the 23 at 00:00 until the 24 at 00:00 UTC


222331Z 2300/2324 35007KT P6SM VCSH SCT100 BKN150
FM230600 35010KT P6SM SCT030 BKN100
FM231300 01006KT P6SM OVC030
FM231700 02006KT P6SM BKN050
FM232000 05009KT P6SM SCT050 BKN080 AMD LTD TO CLD VIS AND WIND
No reported NOTAMs for that airfield.



MET'MAP, your aeronautical weather chart ! - Copyright ORBIFLY December 2007 - Disclaimer

ORBIFLY MET'MAP TEAM :

Programming & Development : Alexandra Zaïnal
Concept & Development : Baudouin d'Aumeries
Co-Development & Prog : Marc-Olivier Méhu
Technical & hardware support : Manuel Goepfert

Contact : metmap@orbifly.com




SOURCES & CREDITS :

   NOAA       Earth
Advisory